Map

Track Data

SID SEASON NUMBER BASIN SUBBASIN NAME ISO_TIME NATURE LAT LON WMO_WIND WMO_PRES WMO_AGENCY TRACK_TYPE DIST2LAND LANDFALL IFLAG USA_AGENCY USA_ATCF_ID USA_LAT USA_LON USA_RECORD USA_STATUS USA_WIND USA_PRES USA_SSHS USA_R34_NE USA_R34_SE USA_R34_SW USA_R34_NW USA_R50_NE USA_R50_SE USA_R50_SW USA_R50_NW USA_R64_NE USA_R64_SE USA_R64_SW USA_R64_NW USA_POCI USA_ROCI USA_RMW USA_EYE TOKYO_LAT TOKYO_LON TOKYO_GRADE TOKYO_WIND TOKYO_PRES TOKYO_R50_DIR TOKYO_R50_LONG TOKYO_R50_SHORT TOKYO_R30_DIR TOKYO_R30_LONG TOKYO_R30_SHORT TOKYO_LAND CMA_LAT CMA_LON CMA_CAT CMA_WIND CMA_PRES HKO_LAT HKO_LON HKO_CAT HKO_WIND HKO_PRES NEWDELHI_LAT NEWDELHI_LON NEWDELHI_GRADE NEWDELHI_WIND NEWDELHI_PRES NEWDELHI_CI NEWDELHI_DP NEWDELHI_POCI REUNION_LAT REUNION_LON REUNION_TYPE REUNION_WIND REUNION_PRES REUNION_TNUM REUNION_CI REUNION_RMW REUNION_R34_NE REUNION_R34_SE REUNION_R34_SW REUNION_R34_NW REUNION_R50_NE REUNION_R50_SE REUNION_R50_SW REUNION_R50_NW REUNION_R64_NE REUNION_R64_SE REUNION_R64_SW REUNION_R64_NW BOM_LAT BOM_LON BOM_TYPE BOM_WIND BOM_PRES BOM_TNUM BOM_CI BOM_RMW BOM_R34_NE BOM_R34_SE BOM_R34_SW BOM_R34_NW BOM_R50_NE BOM_R50_SE BOM_R50_SW BOM_R50_NW BOM_R64_NE BOM_R64_SE BOM_R64_SW BOM_R64_NW BOM_ROCI BOM_POCI BOM_EYE BOM_POS_METHOD BOM_PRES_METHOD NADI_LAT NADI_LON NADI_CAT NADI_WIND NADI_PRES WELLINGTON_LAT WELLINGTON_LON WELLINGTON_WIND WELLINGTON_PRES DS824_LAT DS824_LON DS824_STAGE DS824_WIND DS824_PRES TD9636_LAT TD9636_LON TD9636_STAGE TD9636_WIND TD9636_PRES TD9635_LAT TD9635_LON TD9635_WIND TD9635_PRES TD9635_ROCI NEUMANN_LAT NEUMANN_LON NEUMANN_CLASS NEUMANN_WIND NEUMANN_PRES MLC_LAT MLC_LON MLC_CLASS MLC_WIND MLC_PRES USA_GUST BOM_GUST BOM_GUST_PER REUNION_GUST REUNION_GUST_PER USA_SEAHGT USA_SEARAD_NE USA_SEARAD_SE USA_SEARAD_SW USA_SEARAD_NW STORM_SPEED STORM_DIR
1982262N11258 1982 80 EP MM OLIVIA 1982-09-18 18:00:00 TS 11.3000 -101.700 30 hurdat_epa main 641 624 O_________O___ hurdat_epa EP151982 11.3000 -101.700 TD 30 -1 11.3000 -101.700 1 30 6 340
1982262N11258 1982 80 EP MM OLIVIA 1982-09-18 21:00:00 TS 11.5594 -101.802 main 614 597 P_________P___ EP151982 11.5600 -101.802 TD 30 -1 11.5577 -101.802 1 30 5 338
1982262N11258 1982 80 EP MM OLIVIA 1982-09-19 00:00:00 TS 11.8000 -101.900 30 hurdat_epa main 597 581 O_________O___ hurdat_epa EP151982 11.8000 -101.900 TD 30 -1 11.8000 -101.900 1 30 5 338
1982262N11258 1982 80 EP MM OLIVIA 1982-09-19 03:00:00 TS 12.0096 -101.993 main 581 566 P_________P___ EP151982 12.0075 -101.993 TD 32 -1 12.0161 -101.995 1 32 5 334
1982262N11258 1982 80 EP MM OLIVIA 1982-09-19 06:00:00 TS 12.2034 -102.100 35 hurdat_epa main 566 551 O_________P___ hurdat_epa EP151982 12.2000 -102.100 TS 35 0 12.2135 -102.099 1 35 4 330
1982262N11258 1982 80 EP MM OLIVIA 1982-09-19 09:00:00 TS 12.3897 -102.222 main 551 542 P_________P___ EP151982 12.3850 -102.220 TS 37 0 12.4041 -102.229 1 37 5 324
1982262N11258 1982 80 EP MM OLIVIA 1982-09-19 12:00:00 TS 12.6000 -102.400 40 hurdat_epa main 542 518 O_________O___ hurdat_epa EP151982 12.6000 -102.400 TS 40 0 12.6000 -102.400 2 40 7 318
1982262N11258 1982 80 EP MM OLIVIA 1982-09-19 15:00:00 TS 12.8839 -102.674 main 521 508 P_________P___ EP151982 12.9076 -102.685 TS 45 0 12.8128 -102.640 2 45 8 315
1982262N11258 1982 80 EP MM OLIVIA 1982-09-19 18:00:00 TS 13.1583 -102.980 50 hurdat_epa main 502 496 O_________P___ hurdat_epa EP151982 13.2000 -103.000 TS 50 0 13.0331 -102.919 2 50 7 309
1982262N11258 1982 80 EP MM OLIVIA 1982-09-19 21:00:00 TS 13.3336 -103.247 main 501 491 P_________P___ EP151982 13.3574 -103.258 TS 55 0 13.2619 -103.214 2 55 6 304
1982262N11258 1982 80 EP MM OLIVIA 1982-09-20 00:00:00 TS 13.5000 -103.500 60 hurdat_epa main 497 489 O_________O___ hurdat_epa EP151982 13.5000 -103.500 TS 60 0 13.5000 -103.500 2 60 6 310
1982262N11258 1982 80 EP MM OLIVIA 1982-09-20 03:00:00 TS 13.7381 -103.735 main 489 472 P_________P___ EP151982 13.7349 -103.735 TS 62 0 13.7475 -103.736 2 62 7 316
1982262N11258 1982 80 EP MM OLIVIA 1982-09-20 06:00:00 TS 14.0000 -104.000 65 hurdat_epa main 472 458 O_________O___ hurdat_epa EP151982 14.0000 -104.000 HU 65 1 14.0000 -104.000 3 65 8 312
1982262N11258 1982 80 EP MM OLIVIA 1982-09-20 09:00:00 TS 14.2506 -104.327 main 450 440 P_________P___ EP151982 14.2500 -104.328 HU 65 1 14.2524 -104.324 3 65 8 306
1982262N11258 1982 80 EP MM OLIVIA 1982-09-20 12:00:00 TS 14.5000 -104.700 65 hurdat_epa main 443 429 O_________O___ hurdat_epa EP151982 14.5000 -104.700 HU 65 1 14.5000 -104.700 4 65 9 304
1982262N11258 1982 80 EP MM OLIVIA 1982-09-20 15:00:00 TS 14.7500 -105.083 main 437 426 P_________P___ EP151982 14.7574 -105.078 HU 72 1 14.7278 -105.098 4 72 9 302
1982262N11258 1982 80 EP MM OLIVIA 1982-09-20 18:00:00 TS 14.9866 -105.508 80 hurdat_epa main 426 426 O_________P___ hurdat_epa EP151982 15.0000 -105.500 HU 80 1 14.9463 -105.533 4 80 10 297
1982262N11258 1982 80 EP MM OLIVIA 1982-09-20 21:00:00 TS 15.1860 -105.984 main 437 437 P_________P___ EP151982 15.1924 -105.978 HU 87 2 15.1666 -106.001 4 87 10 293
1982262N11258 1982 80 EP MM OLIVIA 1982-09-21 00:00:00 TS 15.4000 -106.500 95 hurdat_epa main 455 454 O_________O___ hurdat_epa EP151982 15.4000 -106.500 HU 95 2 15.4000 -106.500 4 95 11 296
1982262N11258 1982 80 EP MM OLIVIA 1982-09-21 03:00:00 TS 15.6824 -107.035 main 455 455 P_________P___ EP151982 15.6924 -107.042 HU 97 3 15.6523 -107.014 4 100 12 299
1982262N11258 1982 80 EP MM OLIVIA 1982-09-21 06:00:00 TS 15.9799 -107.589 100 hurdat_epa main 465 463 O_________P___ hurdat_epa EP151982 16.0000 -107.600 HU 100 3 15.9197 -107.556 4 105 12 298
1982262N11258 1982 80 EP MM OLIVIA 1982-09-21 09:00:00 TS 16.2378 -108.132 main 484 484 P_________P___ EP151982 16.2497 -108.135 HU 107 3 16.2022 -108.120 4 110 12 296
1982262N11258 1982 80 EP MM OLIVIA 1982-09-21 12:00:00 TS 16.5000 -108.700 115 hurdat_epa main 507 507 O_________O___ hurdat_epa EP151982 16.5000 -108.700 HU 115 4 16.5000 -108.700 4 115 13 296
1982262N11258 1982 80 EP MM OLIVIA 1982-09-21 15:00:00 TS 16.7892 -109.329 main 532 532 P_________P___ EP151982 16.7851 -109.350 HU 120 4 16.8018 -109.266 4 117 14 297
1982262N11258 1982 80 EP MM OLIVIA 1982-09-21 18:00:00 TS 17.1047 -109.962 125 hurdat_epa main 574 574 O_________P___ hurdat_epa EP151982 17.1000 -110.000 HU 125 4 17.1189 -109.849 4 120 13 300
1982262N11258 1982 80 EP MM OLIVIA 1982-09-21 21:00:00 TS 17.4445 -110.527 main 601 579 P_________P___ EP151982 17.4421 -110.550 HU 125 4 17.4516 -110.457 4 122 13 303
1982262N11258 1982 80 EP MM OLIVIA 1982-09-22 00:00:00 TS 17.8000 -111.100 125 hurdat_epa main 581 559 O_________O___ hurdat_epa EP151982 17.8000 -111.100 HU 125 4 17.8000 -111.100 4 125 13 302
1982262N11258 1982 80 EP MM OLIVIA 1982-09-22 03:00:00 TS 18.1495 -111.723 main 565 547 P_________P___ EP151982 18.1422 -111.713 HU 125 4 18.1716 -111.753 4 122 14 300
1982262N11258 1982 80 EP MM OLIVIA 1982-09-22 06:00:00 TS 18.5139 -112.412 125 hurdat_epa main 551 546 O_________P___ hurdat_epa EP151982 18.5000 -112.400 HU 125 4 18.5555 -112.446 4 120 16 299
1982262N11258 1982 80 EP MM OLIVIA 1982-09-22 09:00:00 TS 18.9089 -113.164 main 557 554 P_________P___ EP151982 18.8996 -113.155 HU 120 4 18.9367 -113.191 4 117 17 298
1982262N11258 1982 80 EP MM OLIVIA 1982-09-22 12:00:00 TS 19.3000 -114.000 115 hurdat_epa main 578 577 O_________O___ hurdat_epa EP151982 19.3000 -114.000 HU 115 4 19.3000 -114.000 4 115 18 294
1982262N11258 1982 80 EP MM OLIVIA 1982-09-22 15:00:00 TS 19.6601 -114.930 main 620 620 P_________P___ EP151982 19.6723 -114.928 HU 112 3 19.6233 -114.938 4 111 19 291
1982262N11258 1982 80 EP MM OLIVIA 1982-09-22 18:00:00 TS 19.9813 -115.908 110 hurdat_epa main 654 654 O_________P___ hurdat_epa EP151982 20.0000 -115.900 HU 110 3 19.9252 -115.930 4 107 19 288
1982262N11258 1982 80 EP MM OLIVIA 1982-09-22 21:00:00 TS 20.2467 -116.898 main 704 703 P_________P___ EP151982 20.2576 -116.895 HU 105 3 20.2141 -116.907 4 103 19 286
1982262N11258 1982 80 EP MM OLIVIA 1982-09-23 00:00:00 TS 20.5000 -117.800 100 hurdat_epa main 748 748 O_________O___ hurdat_epa EP151982 20.5000 -117.800 HU 100 3 20.5000 -117.800 4 100 16 290
1982262N11258 1982 80 EP MM OLIVIA 1982-09-23 03:00:00 TS 20.7882 -118.515 main 785 785 P_________P___ EP151982 20.7917 -118.503 HU 87 2 20.7777 -118.552 4 92 14 295
1982262N11258 1982 80 EP MM OLIVIA 1982-09-23 06:00:00 TS 21.0900 -119.127 75 hurdat_epa main 818 818 O_________P___ hurdat_epa EP151982 21.1000 -119.100 HU 75 1 21.0602 -119.209 4 85 13 298
1982262N11258 1982 80 EP MM OLIVIA 1982-09-23 09:00:00 TS 21.3907 -119.755 main 847 845 P_________P___ EP151982 21.4000 -119.745 HU 72 1 21.3627 -119.787 4 77 13 299
1982262N11258 1982 80 EP MM OLIVIA 1982-09-23 12:00:00 TS 21.7000 -120.300 70 hurdat_epa main 856 852 O_________O___ hurdat_epa EP151982 21.7000 -120.300 HU 70 1 21.7000 -120.300 4 70 11 304
1982262N11258 1982 80 EP MM OLIVIA 1982-09-23 15:00:00 TS 21.9844 -120.702 main 857 853 P_________P___ EP151982 21.9620 -120.666 HU 65 1 22.0518 -120.812 4 65 10 312
1982262N11258 1982 80 EP MM OLIVIA 1982-09-23 18:00:00 TS 22.3361 -121.066 60 hurdat_epa main 860 851 O_________P___ hurdat_epa EP151982 22.3000 -121.000 TS 60 0 22.4442 -121.264 4 60 11 317
1982262N11258 1982 80 EP MM OLIVIA 1982-09-23 21:00:00 TS 22.8207 -121.545 main 851 847 P_________P___ EP151982 22.7978 -121.507 TS 55 0 22.8896 -121.659 4 55 14 321
1982262N11258 1982 80 EP MM OLIVIA 1982-09-24 00:00:00 TS 23.4000 -122.000 50 hurdat_epa main 850 838 O_________O___ hurdat_epa EP151982 23.4000 -122.000 TS 50 0 23.4000 -122.000 2 50 14 329
1982262N11258 1982 80 EP MM OLIVIA 1982-09-24 03:00:00 TS 24.0244 -122.348 main 838 829 P_________P___ EP151982 24.0348 -122.345 TS 47 0 23.9932 -122.356 2 47 14 336
1982262N11258 1982 80 EP MM OLIVIA 1982-09-24 06:00:00 TS 24.6868 -122.614 45 hurdat_epa main 828 820 O_________P___ hurdat_epa EP151982 24.7000 -122.600 TS 45 0 24.6472 -122.655 2 45 14 341
1982262N11258 1982 80 EP MM OLIVIA 1982-09-24 09:00:00 TS 25.3444 -122.859 main 829 815 P_________P___ EP151982 25.3500 -122.852 TS 42 0 25.3277 -122.877 2 42 14 345
1982262N11258 1982 80 EP MM OLIVIA 1982-09-24 12:00:00 TS 26.0000 -123.000 40 hurdat_epa main 815 794 O_________O___ hurdat_epa EP151982 26.0000 -123.000 TS 40 0 26.0000 -123.000 2 40 13 354
1982262N11258 1982 80 EP MM OLIVIA 1982-09-24 15:00:00 TS 26.6603 -123.005 main 789 750 P_________P___ EP151982 26.6649 -123.003 TS 35 0 26.6465 -123.011 2 36 13 4
1982262N11258 1982 80 EP MM OLIVIA 1982-09-24 18:00:00 TS 27.2937 -122.906 30 hurdat_epa main 750 719 O_________P___ hurdat_epa EP151982 27.3000 -122.900 TD 30 -1 27.2746 -122.923 2 32 12 10
1982262N11258 1982 80 EP MM OLIVIA 1982-09-24 21:00:00 TS 27.8764 -122.767 main 715 670 P_________P___ EP151982 27.8800 -122.765 TD 27 -1 27.8655 -122.773 2 28 11 14
1982262N11258 1982 80 EP MM OLIVIA 1982-09-25 00:00:00 TS 28.4000 -122.600 25 hurdat_epa main 670 638 O_________O___ hurdat_epa EP151982 28.4000 -122.600 TD 25 -1 28.4000 -122.600 1 25 10 15
1982262N11258 1982 80 EP MM OLIVIA 1982-09-25 03:00:00 TS 28.8680 -122.461 main 632 593 P_________P___ EP151982 28.8800 -122.450 TD 25 -1 28.8321 -122.496 1 25 9 16
1982262N11258 1982 80 EP MM OLIVIA 1982-09-25 06:00:00 TS 29.2783 -122.318 25 hurdat_epa main 593 558 O_________P___ hurdat_epa EP151982 29.3000 -122.300 TD 25 -1 29.2132 -122.373 1 25 8 18
1982262N11258 1982 80 EP MM OLIVIA 1982-09-25 09:00:00 TS 29.6287 -122.183 main 558 510 P_________P___ EP151982 29.6424 -122.172 TD 25 -1 29.5878 -122.214 1 25 8 21
1982262N11258 1982 80 EP MM OLIVIA 1982-09-25 12:00:00 TS 30.0000 -122.000 25 hurdat_epa main 510 460 O_________O___ hurdat_epa EP151982 30.0000 -122.000 TD 25 -1 30.0000 -122.000 1 25 9 25
1982262N11258 1982 80 EP MM OLIVIA 1982-09-25 15:00:00 TS 30.4689 -121.728 main 449 388 P_________P___ EP151982 30.4653 -121.731 TD 25 -1 30.4798 -121.720 1 25 11 27
1982262N11258 1982 80 EP MM OLIVIA 1982-09-25 18:00:00 TS 31.0000 -121.400 25 hurdat_epa main 388 O_________O___ hurdat_epa EP151982 31.0000 -121.400 TD 25 -1 31.0000 -121.400 1 25 12 28

About IBTrACS Database

This database is a web-friendly format of International Best Track Archive for Climate Stewardship (IBTrACS), a global best track data archive curated by NOAA dating back to 1842.

Updated: 2021-10-21